Briar Park, New York
Current Conditions -  °F | °C
As of 2:53 PM on Thursday 29 Jan 2015 (Local Time) from KFRG Reporting Station
Clear Clear  
Wind Chill: 23°   Ceiling: Unl
Heat Index: 29°   Visibility: 10mi
Dew Point: 16°   Wind: 6mph
Humidity: 58%   Direction: 200°SSW
Pressure: 30.21"   Gusts: NA
Location:  40.681°N, 73.5104°W
Report Text: KFRG 291953Z 20005KT 10SM CLR M02/M09 A3021 RMK AO2 SLP232 T10171089
Loading
Personal Weather Stations






























Interactive Weather Map New forecast layout! Learn more

10-Day Weather Forecast

Advertisements
Track Severe Weather on mobile